sensor_id;sensor_type;location;lat;lon;timestamp;P1;durP1;ratioP1;P2;durP2;ratioP2
53879;SDS011;39791;53.184;5.486;2023-07-30T00:00:44;63.25;;;38.60;;
53879;SDS011;39791;53.184;5.486;2023-07-30T00:03:10;60.72;;;38.35;;
53879;SDS011;39791;53.184;5.486;2023-07-30T00:05:35;59.28;;;37.25;;
53879;SDS011;39791;53.184;5.486;2023-07-30T00:08:01;55.30;;;38.35;;
53879;SDS011;39791;53.184;5.486;2023-07-30T00:10:27;56.10;;;39.63;;
53879;SDS011;39791;53.184;5.486;2023-07-30T00:12:52;51.67;;;38.78;;
53879;SDS011;39791;53.184;5.486;2023-07-30T00:15:18;57.53;;;39.78;;
53879;SDS011;39791;53.184;5.486;2023-07-30T00:17:44;60.90;;;39.83;;
53879;SDS011;39791;53.184;5.486;2023-07-30T00:20:09;61.65;;;38.63;;
53879;SDS011;39791;53.184;5.486;2023-07-30T00:22:35;59.50;;;39.33;;
53879;SDS011;39791;53.184;5.486;2023-07-30T00:25:00;51.72;;;39.15;;
53879;SDS011;39791;53.184;5.486;2023-07-30T00:27:26;58.22;;;39.60;;
53879;SDS011;39791;53.184;5.486;2023-07-30T00:29:51;51.75;;;37.95;;
53879;SDS011;39791;53.184;5.486;2023-07-30T00:32:17;58.60;;;39.53;;
53879;SDS011;39791;53.184;5.486;2023-07-30T00:34:43;56.60;;;39.92;;
53879;SDS011;39791;53.184;5.486;2023-07-30T00:37:09;62.50;;;40.47;;
53879;SDS011;39791;53.184;5.486;2023-07-30T00:39:34;51.53;;;40.83;;
53879;SDS011;39791;53.184;5.486;2023-07-30T00:42:00;58.55;;;42.35;;
53879;SDS011;39791;53.184;5.486;2023-07-30T00:44:26;59.63;;;43.08;;
53879;SDS011;39791;53.184;5.486;2023-07-30T00:46:51;57.72;;;42.05;;
53879;SDS011;39791;53.184;5.486;2023-07-30T00:49:17;59.95;;;39.47;;
53879;SDS011;39791;53.184;5.486;2023-07-30T00:51:43;57.42;;;39.47;;
53879;SDS011;39791;53.184;5.486;2023-07-30T00:54:10;62.53;;;39.90;;
53879;SDS011;39791;53.184;5.486;2023-07-30T00:56:36;51.78;;;39.63;;
53879;SDS011;39791;53.184;5.486;2023-07-30T00:59:01;56.50;;;40.78;;
53879;SDS011;39791;53.184;5.486;2023-07-30T01:01:28;59.75;;;41.42;;
53879;SDS011;39791;53.184;5.486;2023-07-30T01:03:58;55.63;;;40.13;;
53879;SDS011;39791;53.184;5.486;2023-07-30T01:06:23;56.30;;;41.00;;
53879;SDS011;39791;53.184;5.486;2023-07-30T01:08:49;58.67;;;39.97;;
53879;SDS011;39791;53.184;5.486;2023-07-30T01:11:15;57.83;;;40.95;;
53879;SDS011;39791;53.184;5.486;2023-07-30T01:13:41;60.75;;;40.00;;
53879;SDS011;39791;53.184;5.486;2023-07-30T01:16:07;52.50;;;40.05;;
53879;SDS011;39791;53.184;5.486;2023-07-30T01:18:33;61.60;;;41.83;;
53879;SDS011;39791;53.184;5.486;2023-07-30T01:20:59;55.63;;;39.40;;
53879;SDS011;39791;53.184;5.486;2023-07-30T01:23:25;57.85;;;41.15;;
53879;SDS011;39791;53.184;5.486;2023-07-30T01:25:59;50.05;;;40.38;;
53879;SDS011;39791;53.184;5.486;2023-07-30T01:28:29;60.38;;;39.63;;
53879;SDS011;39791;53.184;5.486;2023-07-30T01:31:01;58.13;;;41.15;;
53879;SDS011;39791;53.184;5.486;2023-07-30T01:33:28;61.92;;;40.70;;
53879;SDS011;39791;53.184;5.486;2023-07-30T01:35:55;61.33;;;40.67;;
53879;SDS011;39791;53.184;5.486;2023-07-30T01:38:22;60.15;;;40.92;;
53879;SDS011;39791;53.184;5.486;2023-07-30T01:40:48;56.10;;;41.08;;
53879;SDS011;39791;53.184;5.486;2023-07-30T01:43:14;55.25;;;40.13;;
53879;SDS011;39791;53.184;5.486;2023-07-30T01:45:39;64.50;;;42.13;;
53879;SDS011;39791;53.184;5.486;2023-07-30T01:48:06;60.13;;;40.55;;
53879;SDS011;39791;53.184;5.486;2023-07-30T01:50:31;57.00;;;40.53;;
53879;SDS011;39791;53.184;5.486;2023-07-30T01:52:57;54.30;;;40.10;;
53879;SDS011;39791;53.184;5.486;2023-07-30T01:55:22;53.45;;;39.85;;
53879;SDS011;39791;53.184;5.486;2023-07-30T01:57:48;56.78;;;38.72;;
53879;SDS011;39791;53.184;5.486;2023-07-30T02:00:14;58.35;;;40.90;;
53879;SDS011;39791;53.184;5.486;2023-07-30T02:02:39;53.75;;;38.90;;
53879;SDS011;39791;53.184;5.486;2023-07-30T02:05:05;50.38;;;39.45;;
53879;SDS011;39791;53.184;5.486;2023-07-30T02:07:30;61.60;;;40.05;;
53879;SDS011;39791;53.184;5.486;2023-07-30T02:09:56;56.17;;;40.88;;
53879;SDS011;39791;53.184;5.486;2023-07-30T02:12:22;60.65;;;40.83;;
53879;SDS011;39791;53.184;5.486;2023-07-30T02:14:47;45.05;;;37.63;;
53879;SDS011;39791;53.184;5.486;2023-07-30T02:17:13;42.08;;;33.88;;
53879;SDS011;39791;53.184;5.486;2023-07-30T02:19:38;36.58;;;29.92;;
53879;SDS011;39791;53.184;5.486;2023-07-30T02:22:04;34.15;;;29.10;;
53879;SDS011;39791;53.184;5.486;2023-07-30T02:24:30;32.22;;;28.45;;
53879;SDS011;39791;53.184;5.486;2023-07-30T02:26:55;30.10;;;25.98;;
53879;SDS011;39791;53.184;5.486;2023-07-30T02:29:21;32.97;;;26.25;;
53879;SDS011;39791;53.184;5.486;2023-07-30T02:31:46;28.27;;;25.20;;
53879;SDS011;39791;53.184;5.486;2023-07-30T02:34:12;27.45;;;24.15;;
53879;SDS011;39791;53.184;5.486;2023-07-30T02:36:37;25.23;;;22.70;;
53879;SDS011;39791;53.184;5.486;2023-07-30T02:39:03;24.42;;;20.67;;
53879;SDS011;39791;53.184;5.486;2023-07-30T02:41:29;25.77;;;22.90;;
53879;SDS011;39791;53.184;5.486;2023-07-30T02:43:54;29.15;;;22.50;;
53879;SDS011;39791;53.184;5.486;2023-07-30T02:46:20;26.88;;;24.02;;
53879;SDS011;39791;53.184;5.486;2023-07-30T02:48:45;29.10;;;25.63;;
53879;SDS011;39791;53.184;5.486;2023-07-30T02:51:11;31.65;;;24.77;;
53879;SDS011;39791;53.184;5.486;2023-07-30T02:53:36;31.20;;;23.33;;
53879;SDS011;39791;53.184;5.486;2023-07-30T02:56:02;25.10;;;22.40;;
53879;SDS011;39791;53.184;5.486;2023-07-30T02:58:27;23.58;;;21.25;;
53879;SDS011;39791;53.184;5.486;2023-07-30T03:00:53;22.85;;;20.58;;
53879;SDS011;39791;53.184;5.486;2023-07-30T03:03:18;25.65;;;22.38;;
53879;SDS011;39791;53.184;5.486;2023-07-30T03:05:44;25.40;;;22.40;;
53879;SDS011;39791;53.184;5.486;2023-07-30T03:08:10;27.75;;;24.70;;
53879;SDS011;39791;53.184;5.486;2023-07-30T03:10:38;26.95;;;24.05;;
53879;SDS011;39791;53.184;5.486;2023-07-30T03:13:04;27.67;;;24.58;;
53879;SDS011;39791;53.184;5.486;2023-07-30T03:15:29;24.15;;;21.63;;
53879;SDS011;39791;53.184;5.486;2023-07-30T03:17:55;23.15;;;19.92;;
53879;SDS011;39791;53.184;5.486;2023-07-30T03:20:20;25.42;;;19.40;;
53879;SDS011;39791;53.184;5.486;2023-07-30T03:22:46;22.17;;;19.85;;
53879;SDS011;39791;53.184;5.486;2023-07-30T03:25:11;25.35;;;21.65;;
53879;SDS011;39791;53.184;5.486;2023-07-30T03:27:37;26.92;;;20.98;;
53879;SDS011;39791;53.184;5.486;2023-07-30T03:30:03;27.13;;;23.08;;
53879;SDS011;39791;53.184;5.486;2023-07-30T03:32:29;25.73;;;21.80;;
53879;SDS011;39791;53.184;5.486;2023-07-30T03:34:55;29.50;;;22.63;;
53879;SDS011;39791;53.184;5.486;2023-07-30T03:37:20;29.15;;;24.95;;
53879;SDS011;39791;53.184;5.486;2023-07-30T03:39:46;28.33;;;23.83;;
53879;SDS011;39791;53.184;5.486;2023-07-30T03:42:11;29.20;;;24.45;;
53879;SDS011;39791;53.184;5.486;2023-07-30T03:44:37;37.03;;;25.63;;
53879;SDS011;39791;53.184;5.486;2023-07-30T03:47:02;28.05;;;24.05;;
53879;SDS011;39791;53.184;5.486;2023-07-30T03:49:28;32.95;;;24.63;;
53879;SDS011;39791;53.184;5.486;2023-07-30T03:51:54;27.73;;;23.88;;
53879;SDS011;39791;53.184;5.486;2023-07-30T03:54:19;32.90;;;24.48;;
53879;SDS011;39791;53.184;5.486;2023-07-30T03:56:45;29.58;;;24.10;;
53879;SDS011;39791;53.184;5.486;2023-07-30T03:59:10;33.80;;;24.05;;
53879;SDS011;39791;53.184;5.486;2023-07-30T04:01:36;31.83;;;24.40;;
53879;SDS011;39791;53.184;5.486;2023-07-30T04:04:02;30.48;;;23.42;;
53879;SDS011;39791;53.184;5.486;2023-07-30T04:06:27;29.13;;;22.92;;
53879;SDS011;39791;53.184;5.486;2023-07-30T04:08:53;29.08;;;22.33;;
53879;SDS011;39791;53.184;5.486;2023-07-30T04:11:18;31.67;;;23.35;;
53879;SDS011;39791;53.184;5.486;2023-07-30T04:13:44;31.17;;;24.70;;
53879;SDS011;39791;53.184;5.486;2023-07-30T04:16:09;26.52;;;23.13;;
53879;SDS011;39791;53.184;5.486;2023-07-30T04:18:35;29.55;;;23.80;;
53879;SDS011;39791;53.184;5.486;2023-07-30T04:21:00;31.75;;;23.40;;
53879;SDS011;39791;53.184;5.486;2023-07-30T04:23:26;26.70;;;23.30;;
53879;SDS011;39791;53.184;5.486;2023-07-30T04:25:52;31.23;;;25.13;;
53879;SDS011;39791;53.184;5.486;2023-07-30T04:28:17;29.63;;;24.00;;
53879;SDS011;39791;53.184;5.486;2023-07-30T04:30:43;27.50;;;24.25;;
53879;SDS011;39791;53.184;5.486;2023-07-30T04:33:09;28.67;;;23.45;;
53879;SDS011;39791;53.184;5.486;2023-07-30T04:35:35;31.77;;;24.13;;
53879;SDS011;39791;53.184;5.486;2023-07-30T04:38:00;31.10;;;24.25;;
53879;SDS011;39791;53.184;5.486;2023-07-30T04:40:26;32.17;;;23.77;;
53879;SDS011;39791;53.184;5.486;2023-07-30T04:42:52;30.95;;;24.35;;
53879;SDS011;39791;53.184;5.486;2023-07-30T04:45:17;28.55;;;23.13;;
53879;SDS011;39791;53.184;5.486;2023-07-30T04:47:43;29.88;;;23.02;;
53879;SDS011;39791;53.184;5.486;2023-07-30T04:50:08;26.92;;;24.02;;
53879;SDS011;39791;53.184;5.486;2023-07-30T04:52:34;36.05;;;25.38;;
53879;SDS011;39791;53.184;5.486;2023-07-30T04:54:59;26.45;;;23.50;;
53879;SDS011;39791;53.184;5.486;2023-07-30T04:57:25;31.40;;;24.90;;
53879;SDS011;39791;53.184;5.486;2023-07-30T04:59:51;31.88;;;25.08;;
53879;SDS011;39791;53.184;5.486;2023-07-30T05:02:17;29.20;;;23.02;;
53879;SDS011;39791;53.184;5.486;2023-07-30T05:04:42;29.83;;;24.30;;
53879;SDS011;39791;53.184;5.486;2023-07-30T05:07:08;36.33;;;25.10;;
53879;SDS011;39791;53.184;5.486;2023-07-30T05:09:34;33.33;;;27.00;;
53879;SDS011;39791;53.184;5.486;2023-07-30T05:11:59;31.48;;;25.23;;
53879;SDS011;39791;53.184;5.486;2023-07-30T05:14:25;31.33;;;23.58;;
53879;SDS011;39791;53.184;5.486;2023-07-30T05:16:50;32.25;;;24.55;;
53879;SDS011;39791;53.184;5.486;2023-07-30T05:19:16;34.15;;;25.35;;
53879;SDS011;39791;53.184;5.486;2023-07-30T05:21:42;32.85;;;25.25;;
53879;SDS011;39791;53.184;5.486;2023-07-30T05:24:07;33.65;;;25.88;;
53879;SDS011;39791;53.184;5.486;2023-07-30T05:26:33;37.88;;;28.67;;
53879;SDS011;39791;53.184;5.486;2023-07-30T05:28:58;32.22;;;24.50;;
53879;SDS011;39791;53.184;5.486;2023-07-30T05:31:24;30.83;;;25.60;;
53879;SDS011;39791;53.184;5.486;2023-07-30T05:33:49;29.73;;;24.33;;
53879;SDS011;39791;53.184;5.486;2023-07-30T05:36:15;29.92;;;24.70;;
53879;SDS011;39791;53.184;5.486;2023-07-30T05:38:41;33.78;;;25.00;;
53879;SDS011;39791;53.184;5.486;2023-07-30T05:41:06;34.20;;;26.02;;
53879;SDS011;39791;53.184;5.486;2023-07-30T05:43:32;33.33;;;26.08;;
53879;SDS011;39791;53.184;5.486;2023-07-30T05:45:57;35.30;;;25.70;;
53879;SDS011;39791;53.184;5.486;2023-07-30T05:48:23;31.63;;;24.23;;
53879;SDS011;39791;53.184;5.486;2023-07-30T05:50:48;31.42;;;24.48;;
53879;SDS011;39791;53.184;5.486;2023-07-30T05:53:14;31.50;;;23.75;;
53879;SDS011;39791;53.184;5.486;2023-07-30T05:55:40;27.10;;;22.17;;
53879;SDS011;39791;53.184;5.486;2023-07-30T05:58:05;28.17;;;21.85;;
53879;SDS011;39791;53.184;5.486;2023-07-30T06:00:31;25.90;;;20.70;;
53879;SDS011;39791;53.184;5.486;2023-07-30T06:02:56;32.13;;;21.80;;
53879;SDS011;39791;53.184;5.486;2023-07-30T06:05:22;26.58;;;19.67;;
53879;SDS011;39791;53.184;5.486;2023-07-30T06:07:47;28.58;;;22.58;;
53879;SDS011;39791;53.184;5.486;2023-07-30T06:10:13;32.10;;;24.23;;
53879;SDS011;39791;53.184;5.486;2023-07-30T06:12:39;30.25;;;21.35;;
53879;SDS011;39791;53.184;5.486;2023-07-30T06:15:05;28.50;;;22.08;;
53879;SDS011;39791;53.184;5.486;2023-07-30T06:17:31;29.90;;;20.77;;
53879;SDS011;39791;53.184;5.486;2023-07-30T06:19:57;26.00;;;20.95;;
53879;SDS011;39791;53.184;5.486;2023-07-30T06:22:22;30.98;;;21.67;;
53879;SDS011;39791;53.184;5.486;2023-07-30T06:24:48;31.98;;;23.13;;
53879;SDS011;39791;53.184;5.486;2023-07-30T06:27:13;27.73;;;21.73;;
53879;SDS011;39791;53.184;5.486;2023-07-30T06:29:39;26.77;;;22.05;;
53879;SDS011;39791;53.184;5.486;2023-07-30T06:32:05;26.58;;;19.20;;
53879;SDS011;39791;53.184;5.486;2023-07-30T06:34:31;28.15;;;18.35;;
53879;SDS011;39791;53.184;5.486;2023-07-30T06:36:56;28.20;;;19.85;;
53879;SDS011;39791;53.184;5.486;2023-07-30T06:39:22;24.00;;;18.92;;
53879;SDS011;39791;53.184;5.486;2023-07-30T06:41:47;28.55;;;19.33;;
53879;SDS011;39791;53.184;5.486;2023-07-30T06:44:13;25.80;;;18.92;;
53879;SDS011;39791;53.184;5.486;2023-07-30T06:46:38;22.42;;;16.45;;
53879;SDS011;39791;53.184;5.486;2023-07-30T06:49:04;24.65;;;17.83;;
53879;SDS011;39791;53.184;5.486;2023-07-30T06:51:30;23.80;;;16.52;;
53879;SDS011;39791;53.184;5.486;2023-07-30T06:53:55;23.60;;;17.10;;
53879;SDS011;39791;53.184;5.486;2023-07-30T06:56:21;23.48;;;17.75;;
53879;SDS011;39791;53.184;5.486;2023-07-30T06:58:47;25.55;;;17.10;;
53879;SDS011;39791;53.184;5.486;2023-07-30T07:01:12;29.55;;;19.52;;
53879;SDS011;39791;53.184;5.486;2023-07-30T07:03:38;25.00;;;19.23;;
53879;SDS011;39791;53.184;5.486;2023-07-30T07:06:03;22.23;;;16.42;;
53879;SDS011;39791;53.184;5.486;2023-07-30T07:08:30;26.45;;;16.95;;
53879;SDS011;39791;53.184;5.486;2023-07-30T07:10:55;27.33;;;17.73;;
53879;SDS011;39791;53.184;5.486;2023-07-30T07:13:21;23.45;;;18.90;;
53879;SDS011;39791;53.184;5.486;2023-07-30T07:15:47;28.05;;;18.45;;
53879;SDS011;39791;53.184;5.486;2023-07-30T07:18:12;23.27;;;15.18;;
53879;SDS011;39791;53.184;5.486;2023-07-30T07:20:38;20.90;;;15.77;;
53879;SDS011;39791;53.184;5.486;2023-07-30T07:23:04;23.65;;;15.05;;
53879;SDS011;39791;53.184;5.486;2023-07-30T07:25:30;25.67;;;17.17;;
53879;SDS011;39791;53.184;5.486;2023-07-30T07:27:55;22.58;;;16.10;;
53879;SDS011;39791;53.184;5.486;2023-07-30T07:30:21;24.92;;;18.48;;
53879;SDS011;39791;53.184;5.486;2023-07-30T07:32:47;23.95;;;16.67;;
53879;SDS011;39791;53.184;5.486;2023-07-30T07:35:15;22.95;;;17.67;;
53879;SDS011;39791;53.184;5.486;2023-07-30T07:37:41;20.10;;;17.95;;
53879;SDS011;39791;53.184;5.486;2023-07-30T07:40:07;25.17;;;20.85;;
53879;SDS011;39791;53.184;5.486;2023-07-30T07:42:34;28.27;;;19.80;;
53879;SDS011;39791;53.184;5.486;2023-07-30T07:45:00;25.50;;;16.70;;
53879;SDS011;39791;53.184;5.486;2023-07-30T07:47:26;21.50;;;18.40;;
53879;SDS011;39791;53.184;5.486;2023-07-30T07:49:52;24.52;;;18.90;;
53879;SDS011;39791;53.184;5.486;2023-07-30T07:52:17;24.70;;;19.10;;
53879;SDS011;39791;53.184;5.486;2023-07-30T07:54:44;28.25;;;19.23;;
53879;SDS011;39791;53.184;5.486;2023-07-30T07:57:10;29.13;;;20.23;;
53879;SDS011;39791;53.184;5.486;2023-07-30T07:59:35;24.77;;;21.38;;
53879;SDS011;39791;53.184;5.486;2023-07-30T08:02:01;28.45;;;21.23;;
53879;SDS011;39791;53.184;5.486;2023-07-30T08:04:27;26.05;;;20.60;;
53879;SDS011;39791;53.184;5.486;2023-07-30T08:06:53;30.90;;;22.10;;
53879;SDS011;39791;53.184;5.486;2023-07-30T08:09:18;25.63;;;21.48;;
53879;SDS011;39791;53.184;5.486;2023-07-30T08:11:44;26.23;;;20.83;;
53879;SDS011;39791;53.184;5.486;2023-07-30T08:14:09;30.95;;;20.70;;
53879;SDS011;39791;53.184;5.486;2023-07-30T08:16:35;20.00;;;17.45;;
53879;SDS011;39791;53.184;5.486;2023-07-30T08:19:01;22.23;;;19.58;;
53879;SDS011;39791;53.184;5.486;2023-07-30T08:21:26;26.65;;;17.20;;
53879;SDS011;39791;53.184;5.486;2023-07-30T08:23:52;20.63;;;16.20;;
53879;SDS011;39791;53.184;5.486;2023-07-30T08:26:17;22.63;;;18.05;;
53879;SDS011;39791;53.184;5.486;2023-07-30T08:28:44;27.50;;;16.98;;
53879;SDS011;39791;53.184;5.486;2023-07-30T08:31:09;24.73;;;17.55;;
53879;SDS011;39791;53.184;5.486;2023-07-30T08:33:35;25.50;;;18.38;;
53879;SDS011;39791;53.184;5.486;2023-07-30T08:36:01;25.45;;;17.83;;
53879;SDS011;39791;53.184;5.486;2023-07-30T08:38:27;23.88;;;16.48;;
53879;SDS011;39791;53.184;5.486;2023-07-30T08:40:54;20.80;;;15.23;;
53879;SDS011;39791;53.184;5.486;2023-07-30T08:43:20;19.63;;;16.48;;
53879;SDS011;39791;53.184;5.486;2023-07-30T08:45:46;20.38;;;16.52;;
53879;SDS011;39791;53.184;5.486;2023-07-30T08:48:11;21.02;;;16.75;;
53879;SDS011;39791;53.184;5.486;2023-07-30T08:50:37;22.35;;;15.95;;
53879;SDS011;39791;53.184;5.486;2023-07-30T08:53:05;22.15;;;15.50;;
53879;SDS011;39791;53.184;5.486;2023-07-30T08:55:32;19.58;;;15.73;;
53879;SDS011;39791;53.184;5.486;2023-07-30T08:57:59;24.75;;;16.10;;
53879;SDS011;39791;53.184;5.486;2023-07-30T09:00:27;21.83;;;17.30;;
53879;SDS011;39791;53.184;5.486;2023-07-30T09:02:58;21.45;;;15.23;;
53879;SDS011;39791;53.184;5.486;2023-07-30T09:05:25;25.25;;;15.60;;
53879;SDS011;39791;53.184;5.486;2023-07-30T09:07:54;20.73;;;14.00;;
53879;SDS011;39791;53.184;5.486;2023-07-30T09:10:23;19.15;;;14.70;;
53879;SDS011;39791;53.184;5.486;2023-07-30T09:12:53;20.38;;;14.25;;
53879;SDS011;39791;53.184;5.486;2023-07-30T09:15:28;17.55;;;14.50;;
53879;SDS011;39791;53.184;5.486;2023-07-30T09:17:58;23.77;;;17.85;;
53879;SDS011;39791;53.184;5.486;2023-07-30T09:20:24;20.52;;;17.42;;
53879;SDS011;39791;53.184;5.486;2023-07-30T09:22:50;23.17;;;19.02;;
53879;SDS011;39791;53.184;5.486;2023-07-30T09:25:17;23.98;;;21.38;;
53879;SDS011;39791;53.184;5.486;2023-07-30T09:27:47;24.77;;;21.05;;
53879;SDS011;39791;53.184;5.486;2023-07-30T09:30:14;17.13;;;15.20;;
53879;SDS011;39791;53.184;5.486;2023-07-30T09:32:46;24.67;;;16.92;;
53879;SDS011;39791;53.184;5.486;2023-07-30T09:35:20;18.85;;;14.48;;
53879;SDS011;39791;53.184;5.486;2023-07-30T09:37:45;15.82;;;13.15;;
53879;SDS011;39791;53.184;5.486;2023-07-30T09:40:14;22.30;;;13.68;;
53879;SDS011;39791;53.184;5.486;2023-07-30T09:42:44;18.33;;;13.57;;
53879;SDS011;39791;53.184;5.486;2023-07-30T09:45:23;16.58;;;12.77;;
53879;SDS011;39791;53.184;5.486;2023-07-30T09:47:50;18.98;;;13.35;;
53879;SDS011;39791;53.184;5.486;2023-07-30T09:50:17;17.75;;;13.52;;
53879;SDS011;39791;53.184;5.486;2023-07-30T09:52:43;17.98;;;13.38;;
53879;SDS011;39791;53.184;5.486;2023-07-30T09:55:09;22.55;;;16.30;;
53879;SDS011;39791;53.184;5.486;2023-07-30T09:57:36;23.08;;;14.60;;
53879;SDS011;39791;53.184;5.486;2023-07-30T10:00:02;21.55;;;14.30;;
53879;SDS011;39791;53.184;5.486;2023-07-30T10:02:29;22.27;;;14.73;;
53879;SDS011;39791;53.184;5.486;2023-07-30T10:04:56;22.85;;;12.90;;
53879;SDS011;39791;53.184;5.486;2023-07-30T10:07:24;22.05;;;15.52;;
53879;SDS011;39791;53.184;5.486;2023-07-30T10:09:54;22.38;;;15.07;;
53879;SDS011;39791;53.184;5.486;2023-07-30T10:12:24;17.92;;;13.63;;
53879;SDS011;39791;53.184;5.486;2023-07-30T10:14:55;19.00;;;12.38;;
53879;SDS011;39791;53.184;5.486;2023-07-30T10:17:21;19.75;;;13.35;;
53879;SDS011;39791;53.184;5.486;2023-07-30T10:19:47;18.90;;;12.50;;
53879;SDS011;39791;53.184;5.486;2023-07-30T10:24:55;19.70;;;13.27;;
53879;SDS011;39791;53.184;5.486;2023-07-30T10:27:36;21.90;;;13.90;;
53879;SDS011;39791;53.184;5.486;2023-07-30T10:30:10;15.95;;;8.65;;
53879;SDS011;39791;53.184;5.486;2023-07-30T10:32:41;21.48;;;11.95;;
53879;SDS011;39791;53.184;5.486;2023-07-30T10:40:39;18.20;;;11.88;;
53879;SDS011;39791;53.184;5.486;2023-07-30T10:43:15;20.45;;;12.52;;
53879;SDS011;39791;53.184;5.486;2023-07-30T10:45:48;19.42;;;12.02;;
53879;SDS011;39791;53.184;5.486;2023-07-30T10:48:15;19.50;;;14.18;;
53879;SDS011;39791;53.184;5.486;2023-07-30T10:50:41;18.95;;;14.77;;
53879;SDS011;39791;53.184;5.486;2023-07-30T10:53:08;17.70;;;11.63;;
53879;SDS011;39791;53.184;5.486;2023-07-30T10:55:33;17.42;;;12.05;;
53879;SDS011;39791;53.184;5.486;2023-07-30T10:57:59;19.25;;;13.20;;
53879;SDS011;39791;53.184;5.486;2023-07-30T11:00:26;19.52;;;14.45;;
53879;SDS011;39791;53.184;5.486;2023-07-30T11:02:54;19.67;;;15.85;;
53879;SDS011;39791;53.184;5.486;2023-07-30T11:05:20;20.70;;;18.55;;
53879;SDS011;39791;53.184;5.486;2023-07-30T11:07:50;23.30;;;17.10;;
53879;SDS011;39791;53.184;5.486;2023-07-30T11:10:16;21.08;;;14.02;;
53879;SDS011;39791;53.184;5.486;2023-07-30T11:12:42;20.20;;;12.63;;
53879;SDS011;39791;53.184;5.486;2023-07-30T11:15:08;19.10;;;13.50;;
53879;SDS011;39791;53.184;5.486;2023-07-30T11:17:34;15.02;;;11.05;;
53879;SDS011;39791;53.184;5.486;2023-07-30T11:20:00;17.27;;;11.65;;
53879;SDS011;39791;53.184;5.486;2023-07-30T11:22:30;15.88;;;10.15;;
53879;SDS011;39791;53.184;5.486;2023-07-30T11:24:57;12.93;;;8.90;;
53879;SDS011;39791;53.184;5.486;2023-07-30T11:27:23;18.42;;;10.00;;
53879;SDS011;39791;53.184;5.486;2023-07-30T11:29:55;18.23;;;10.55;;
53879;SDS011;39791;53.184;5.486;2023-07-30T11:32:22;10.30;;;6.82;;
53879;SDS011;39791;53.184;5.486;2023-07-30T11:34:51;14.60;;;7.22;;
53879;SDS011;39791;53.184;5.486;2023-07-30T11:37:20;13.48;;;6.68;;
53879;SDS011;39791;53.184;5.486;2023-07-30T11:39:47;12.85;;;6.65;;
53879;SDS011;39791;53.184;5.486;2023-07-30T11:42:13;11.60;;;7.70;;
53879;SDS011;39791;53.184;5.486;2023-07-30T11:44:39;11.30;;;6.75;;
53879;SDS011;39791;53.184;5.486;2023-07-30T11:47:05;12.27;;;8.43;;
53879;SDS011;39791;53.184;5.486;2023-07-30T11:49:31;18.27;;;9.27;;
53879;SDS011;39791;53.184;5.486;2023-07-30T11:54:35;12.77;;;8.93;;
53879;SDS011;39791;53.184;5.486;2023-07-30T11:57:01;12.63;;;6.38;;
53879;SDS011;39791;53.184;5.486;2023-07-30T11:59:27;13.77;;;7.10;;
53879;SDS011;39791;53.184;5.486;2023-07-30T12:01:52;10.50;;;5.55;;
53879;SDS011;39791;53.184;5.486;2023-07-30T12:04:18;13.45;;;7.15;;
53879;SDS011;39791;53.184;5.486;2023-07-30T12:06:45;16.33;;;8.65;;
53879;SDS011;39791;53.184;5.486;2023-07-30T12:09:14;14.60;;;7.60;;
53879;SDS011;39791;53.184;5.486;2023-07-30T12:11:47;16.75;;;8.32;;
53879;SDS011;39791;53.184;5.486;2023-07-30T12:14:13;13.45;;;6.57;;
53879;SDS011;39791;53.184;5.486;2023-07-30T12:16:40;15.00;;;7.63;;
53879;SDS011;39791;53.184;5.486;2023-07-30T12:19:06;17.08;;;9.95;;
53879;SDS011;39791;53.184;5.486;2023-07-30T12:21:31;13.48;;;7.57;;
53879;SDS011;39791;53.184;5.486;2023-07-30T12:23:57;13.57;;;8.10;;
53879;SDS011;39791;53.184;5.486;2023-07-30T12:26:23;14.68;;;6.72;;
53879;SDS011;39791;53.184;5.486;2023-07-30T12:28:48;14.48;;;6.55;;
53879;SDS011;39791;53.184;5.486;2023-07-30T12:31:14;12.43;;;5.95;;
53879;SDS011;39791;53.184;5.486;2023-07-30T12:33:39;17.77;;;10.63;;
53879;SDS011;39791;53.184;5.486;2023-07-30T12:36:05;16.30;;;7.57;;
53879;SDS011;39791;53.184;5.486;2023-07-30T12:38:30;10.85;;;5.60;;
53879;SDS011;39791;53.184;5.486;2023-07-30T12:40:56;16.20;;;10.63;;
53879;SDS011;39791;53.184;5.486;2023-07-30T12:43:21;16.42;;;11.88;;
53879;SDS011;39791;53.184;5.486;2023-07-30T12:45:47;16.65;;;8.48;;
53879;SDS011;39791;53.184;5.486;2023-07-30T12:48:13;13.02;;;6.93;;
53879;SDS011;39791;53.184;5.486;2023-07-30T12:50:39;13.95;;;10.48;;
53879;SDS011;39791;53.184;5.486;2023-07-30T12:53:04;12.75;;;7.50;;
53879;SDS011;39791;53.184;5.486;2023-07-30T12:55:30;15.30;;;10.52;;
53879;SDS011;39791;53.184;5.486;2023-07-30T12:57:56;18.20;;;9.25;;
53879;SDS011;39791;53.184;5.486;2023-07-30T13:00:21;15.48;;;10.73;;
53879;SDS011;39791;53.184;5.486;2023-07-30T13:02:47;16.98;;;13.30;;
53879;SDS011;39791;53.184;5.486;2023-07-30T13:05:12;15.57;;;10.52;;
53879;SDS011;39791;53.184;5.486;2023-07-30T13:07:40;13.30;;;9.13;;
53879;SDS011;39791;53.184;5.486;2023-07-30T13:10:06;17.05;;;7.78;;
53879;SDS011;39791;53.184;5.486;2023-07-30T13:12:33;12.98;;;6.53;;
53879;SDS011;39791;53.184;5.486;2023-07-30T13:14:59;16.67;;;8.13;;
53879;SDS011;39791;53.184;5.486;2023-07-30T13:17:25;12.80;;;5.60;;
53879;SDS011;39791;53.184;5.486;2023-07-30T13:19:51;9.88;;;6.13;;
53879;SDS011;39791;53.184;5.486;2023-07-30T13:22:16;12.85;;;7.10;;
53879;SDS011;39791;53.184;5.486;2023-07-30T13:24:42;14.05;;;5.35;;
53879;SDS011;39791;53.184;5.486;2023-07-30T13:27:08;8.32;;;4.10;;
53879;SDS011;39791;53.184;5.486;2023-07-30T13:29:33;11.60;;;4.47;;
53879;SDS011;39791;53.184;5.486;2023-07-30T13:31:59;12.68;;;5.28;;
53879;SDS011;39791;53.184;5.486;2023-07-30T13:37:00;14.38;;;5.78;;
53879;SDS011;39791;53.184;5.486;2023-07-30T13:39:26;18.70;;;11.85;;
53879;SDS011;39791;53.184;5.486;2023-07-30T13:41:52;14.00;;;8.85;;
53879;SDS011;39791;53.184;5.486;2023-07-30T13:44:17;16.25;;;11.10;;
53879;SDS011;39791;53.184;5.486;2023-07-30T13:46:43;19.40;;;12.13;;
53879;SDS011;39791;53.184;5.486;2023-07-30T13:49:08;16.33;;;14.38;;
53879;SDS011;39791;53.184;5.486;2023-07-30T13:51:34;22.27;;;19.83;;
53879;SDS011;39791;53.184;5.486;2023-07-30T13:54:00;33.95;;;31.15;;
53879;SDS011;39791;53.184;5.486;2023-07-30T13:56:26;44.80;;;40.70;;
53879;SDS011;39791;53.184;5.486;2023-07-30T13:58:55;33.45;;;30.33;;
53879;SDS011;39791;53.184;5.486;2023-07-30T14:01:21;26.88;;;24.38;;
53879;SDS011;39791;53.184;5.486;2023-07-30T14:03:47;27.60;;;25.13;;
53879;SDS011;39791;53.184;5.486;2023-07-30T14:06:13;33.67;;;30.02;;
53879;SDS011;39791;53.184;5.486;2023-07-30T14:08:38;30.02;;;26.98;;
53879;SDS011;39791;53.184;5.486;2023-07-30T14:11:04;33.17;;;29.02;;
53879;SDS011;39791;53.184;5.486;2023-07-30T14:13:29;35.65;;;32.17;;
53879;SDS011;39791;53.184;5.486;2023-07-30T14:15:55;27.65;;;24.90;;
53879;SDS011;39791;53.184;5.486;2023-07-30T14:18:21;31.13;;;27.92;;
53879;SDS011;39791;53.184;5.486;2023-07-30T14:20:47;45.97;;;41.33;;
53879;SDS011;39791;53.184;5.486;2023-07-30T14:23:12;53.17;;;47.53;;
53879;SDS011;39791;53.184;5.486;2023-07-30T14:25:39;52.53;;;46.88;;
53879;SDS011;39791;53.184;5.486;2023-07-30T14:28:04;50.20;;;44.88;;
53879;SDS011;39791;53.184;5.486;2023-07-30T14:30:30;57.95;;;47.92;;